createdAt,value
2022-08-28T00:01:29.298Z,18.89
2022-08-28T00:03:59.215Z,18.80
2022-08-28T00:06:28.443Z,18.87
2022-08-28T00:08:57.250Z,18.80
2022-08-28T00:11:26.141Z,18.83
2022-08-28T00:13:54.926Z,18.78
2022-08-28T00:16:27.675Z,18.83
2022-08-28T00:18:56.513Z,18.85
2022-08-28T00:21:26.006Z,18.85
2022-08-28T00:23:55.020Z,18.84
2022-08-28T00:26:37.688Z,18.89
2022-08-28T00:29:07.376Z,18.87
2022-08-28T00:31:38.490Z,18.86
2022-08-28T00:34:07.779Z,18.89
2022-08-28T00:36:37.774Z,18.92
2022-08-28T00:39:07.338Z,18.90
2022-08-28T00:41:36.718Z,18.93
2022-08-28T00:44:13.289Z,18.93
2022-08-28T00:46:45.135Z,18.91
2022-08-28T00:49:16.050Z,18.89
2022-08-28T00:52:02.554Z,18.90
2022-08-28T00:54:33.013Z,18.94
2022-08-28T00:57:04.281Z,18.97
2022-08-28T00:59:33.470Z,18.97
2022-08-28T01:02:03.773Z,18.95
2022-08-28T01:04:34.019Z,18.96
2022-08-28T01:07:06.640Z,18.97
2022-08-28T01:09:36.448Z,18.95
2022-08-28T01:12:09.353Z,18.94
2022-08-28T01:14:40.547Z,18.93
2022-08-28T01:17:11.455Z,18.92
2022-08-28T01:19:42.573Z,18.97
2022-08-28T01:22:22.228Z,18.93
2022-08-28T01:24:54.077Z,18.93
2022-08-28T01:27:24.967Z,18.98
2022-08-28T01:29:55.315Z,19.04
2022-08-28T01:32:29.862Z,18.94
2022-08-28T01:34:59.181Z,18.91
2022-08-28T01:37:28.097Z,18.88
2022-08-28T01:39:58.574Z,18.93
2022-08-28T01:42:27.799Z,18.86
2022-08-28T01:44:56.819Z,18.88
2022-08-28T01:47:25.581Z,18.87
2022-08-28T01:49:54.307Z,18.83
2022-08-28T01:52:26.280Z,18.85
2022-08-28T01:54:55.397Z,18.82
2022-08-28T01:57:27.965Z,18.82
2022-08-28T01:59:56.743Z,18.84
2022-08-28T02:02:26.021Z,18.78
2022-08-28T02:04:54.821Z,18.75
2022-08-28T02:07:23.538Z,18.74
2022-08-28T02:09:52.689Z,18.77
2022-08-28T02:12:21.445Z,18.75
2022-08-28T02:14:51.833Z,18.75
2022-08-28T02:17:20.599Z,18.77
2022-08-28T02:19:49.485Z,18.76
2022-08-28T02:22:18.359Z,18.77
2022-08-28T02:24:47.275Z,18.82
2022-08-28T02:27:16.041Z,18.87
2022-08-28T02:29:45.003Z,18.82
2022-08-28T02:32:15.311Z,18.79
2022-08-28T02:34:44.135Z,18.85
2022-08-28T02:37:13.634Z,18.83
2022-08-28T02:39:42.350Z,18.83
2022-08-28T02:42:11.115Z,18.90
2022-08-28T02:44:40.028Z,18.94
2022-08-28T02:47:09.065Z,18.97
2022-08-28T02:49:39.348Z,18.96
2022-08-28T02:52:08.185Z,18.88
2022-08-28T02:54:38.644Z,18.95
2022-08-28T02:57:08.734Z,18.87
2022-08-28T02:59:37.915Z,18.89
2022-08-28T03:02:07.554Z,18.92
2022-08-28T03:04:37.683Z,18.89
2022-08-28T03:07:10.008Z,18.87
2022-08-28T03:09:41.576Z,18.90
2022-08-28T03:12:13.098Z,18.90
2022-08-28T03:14:42.425Z,18.92
2022-08-28T03:17:11.228Z,18.92
2022-08-28T03:19:39.948Z,18.95
2022-08-28T03:22:10.521Z,18.88
2022-08-28T03:24:38.380Z,18.90
2022-08-28T03:27:07.207Z,18.94
2022-08-28T03:29:36.361Z,18.92
2022-08-28T03:32:05.541Z,18.92
2022-08-28T03:34:34.701Z,18.98
2022-08-28T03:37:03.494Z,18.95
2022-08-28T03:39:33.992Z,18.90
2022-08-28T03:42:03.782Z,18.89
2022-08-28T03:44:33.292Z,18.89
2022-08-28T03:47:02.057Z,18.92
2022-08-28T03:49:31.270Z,18.88
2022-08-28T03:52:00.553Z,18.93
2022-08-28T03:54:31.637Z,18.94
2022-08-28T03:57:01.798Z,18.96
2022-08-28T03:59:31.776Z,18.91
2022-08-28T04:02:02.515Z,18.92
2022-08-28T04:04:31.363Z,18.90
2022-08-28T04:07:00.189Z,18.93
2022-08-28T04:09:28.937Z,18.88
2022-08-28T04:11:57.834Z,18.95
2022-08-28T04:14:28.030Z,18.94
2022-08-28T04:17:01.405Z,18.95
2022-08-28T04:19:31.106Z,18.94
2022-08-28T04:21:59.961Z,18.93
2022-08-28T04:24:28.718Z,19.00
2022-08-28T04:26:57.564Z,18.96
2022-08-28T04:29:28.114Z,19.01
2022-08-28T04:31:58.295Z,19.00
2022-08-28T04:34:27.155Z,19.00
2022-08-28T04:36:55.943Z,18.99
2022-08-28T04:39:24.750Z,18.99
2022-08-28T04:41:55.973Z,19.04
2022-08-28T04:44:24.732Z,19.07
2022-08-28T04:46:54.986Z,19.10
2022-08-28T04:49:27.666Z,19.04
2022-08-28T04:51:56.459Z,19.09
2022-08-28T04:54:25.167Z,19.10
2022-08-28T04:56:53.949Z,19.12
2022-08-28T04:59:22.746Z,19.13
2022-08-28T05:01:52.079Z,19.11
2022-08-28T05:04:22.553Z,19.13
2022-08-28T05:06:51.381Z,19.19
2022-08-28T05:09:20.846Z,19.20
2022-08-28T05:11:50.458Z,19.20
2022-08-28T05:14:20.083Z,19.20
2022-08-28T05:16:50.295Z,19.20
2022-08-28T05:19:20.051Z,19.20
2022-08-28T05:21:50.179Z,19.13
2022-08-28T05:24:18.979Z,19.13
2022-08-28T05:26:48.268Z,19.18
2022-08-28T05:29:18.001Z,19.18
2022-08-28T05:31:47.702Z,19.10
2022-08-28T05:34:16.659Z,19.19
2022-08-28T05:36:45.414Z,19.18
2022-08-28T05:39:16.627Z,19.16
2022-08-28T05:41:46.713Z,19.16
2022-08-28T05:44:17.166Z,19.20
2022-08-28T05:46:48.068Z,19.12
2022-08-28T05:49:18.285Z,19.19
2022-08-28T05:51:47.476Z,19.21
2022-08-28T05:54:18.111Z,19.24
2022-08-28T05:56:47.124Z,19.18
2022-08-28T05:59:17.043Z,19.27
2022-08-28T06:01:47.789Z,19.33
2022-08-28T06:04:19.141Z,19.40
2022-08-28T06:06:49.447Z,19.44
2022-08-28T06:09:28.175Z,19.47
2022-08-28T06:11:59.748Z,19.45
2022-08-28T06:14:29.711Z,19.41
2022-08-28T06:16:59.700Z,19.48
2022-08-28T06:19:30.147Z,19.47
2022-08-28T06:22:00.834Z,19.56
2022-08-28T06:24:31.414Z,19.58
2022-08-28T06:27:00.501Z,19.57
2022-08-28T06:29:29.557Z,19.60
2022-08-28T06:32:00.231Z,19.63
2022-08-28T06:34:29.971Z,19.60
2022-08-28T06:36:58.729Z,19.68
2022-08-28T06:39:27.474Z,19.66
2022-08-28T06:41:57.679Z,19.68
2022-08-28T06:44:26.517Z,19.67
2022-08-28T06:46:55.764Z,19.66
2022-08-28T06:49:25.170Z,19.74
2022-08-28T06:51:54.122Z,19.81
2022-08-28T06:54:23.683Z,19.91
2022-08-28T06:56:52.946Z,19.98
2022-08-28T06:59:23.096Z,20.04
2022-08-28T07:01:54.466Z,20.05
2022-08-28T07:04:23.397Z,20.06
2022-08-28T07:06:54.626Z,20.07
2022-08-28T07:09:24.816Z,20.10
2022-08-28T07:11:54.220Z,20.09
2022-08-28T07:14:25.723Z,20.22
2022-08-28T07:16:55.017Z,20.31
2022-08-28T07:19:24.232Z,20.32
2022-08-28T07:21:53.342Z,20.33
2022-08-28T07:24:23.363Z,20.34
2022-08-28T07:26:52.270Z,20.33
2022-08-28T07:29:21.163Z,20.34
2022-08-28T07:31:53.514Z,20.34
2022-08-28T07:34:27.077Z,20.34
2022-08-28T07:36:58.218Z,20.32
2022-08-28T07:39:26.919Z,20.27
2022-08-28T07:41:55.949Z,20.31
2022-08-28T07:44:42.319Z,20.37
2022-08-28T07:47:12.743Z,20.47
2022-08-28T07:49:41.948Z,20.61
2022-08-28T07:52:11.433Z,20.66
2022-08-28T07:54:40.802Z,20.68
2022-08-28T07:57:10.775Z,20.76
2022-08-28T07:59:42.253Z,20.90
2022-08-28T08:02:12.535Z,21.04
2022-08-28T08:04:41.919Z,21.19
2022-08-28T08:07:12.818Z,21.29
2022-08-28T08:09:43.893Z,21.38
2022-08-28T08:12:14.701Z,21.54
2022-08-28T08:14:45.714Z,21.51
2022-08-28T08:17:15.874Z,21.53
2022-08-28T08:19:44.971Z,21.60
2022-08-28T08:22:14.104Z,21.70
2022-08-28T08:24:42.911Z,21.57
2022-08-28T08:27:11.898Z,21.60
2022-08-28T08:29:40.768Z,21.72
2022-08-28T08:32:11.789Z,21.89
2022-08-28T08:34:43.262Z,22.07
2022-08-28T08:37:13.508Z,22.13
2022-08-28T08:39:43.413Z,21.97
2022-08-28T08:42:22.550Z,21.93
2022-08-28T08:44:52.997Z,21.95
2022-08-28T08:47:24.300Z,22.04
2022-08-28T08:49:57.551Z,22.00
2022-08-28T08:52:35.412Z,22.05
2022-08-28T08:55:15.433Z,22.07
2022-08-28T08:57:46.177Z,22.11
2022-08-28T09:00:19.165Z,21.96
2022-08-28T09:02:53.084Z,21.96
2022-08-28T09:05:25.293Z,22.02
2022-08-28T09:07:57.739Z,21.87
2022-08-28T09:10:34.703Z,21.77
2022-08-28T09:13:08.043Z,21.72
2022-08-28T09:15:42.781Z,21.73
2022-08-28T09:18:19.020Z,21.77
2022-08-28T09:20:52.755Z,21.89
2022-08-28T09:23:23.822Z,21.88
2022-08-28T09:25:56.527Z,21.89
2022-08-28T09:28:31.077Z,21.98
2022-08-28T09:31:03.308Z,22.02
2022-08-28T09:33:36.049Z,21.97
2022-08-28T09:36:32.691Z,22.14
2022-08-28T09:39:10.754Z,22.17
2022-08-28T09:42:02.576Z,22.28
2022-08-28T09:44:31.443Z,22.38
2022-08-28T09:47:00.284Z,22.43
2022-08-28T09:52:01.564Z,22.50
2022-08-28T09:54:34.287Z,22.63
2022-08-28T09:57:03.820Z,22.66
2022-08-28T09:59:32.771Z,22.68
2022-08-28T10:02:22.347Z,22.56
2022-08-28T10:04:59.242Z,22.57
2022-08-28T10:07:41.236Z,22.60
2022-08-28T10:10:19.671Z,22.70
2022-08-28T10:12:59.571Z,22.67
2022-08-28T10:15:32.538Z,22.78
2022-08-28T10:18:15.378Z,22.99
2022-08-28T10:20:50.109Z,23.07
2022-08-28T10:23:27.874Z,23.01
2022-08-28T10:26:03.827Z,23.10
2022-08-28T10:28:43.658Z,23.05
2022-08-28T10:31:19.108Z,23.19
2022-08-28T10:34:02.748Z,23.29
2022-08-28T10:36:34.787Z,23.75
2022-08-28T10:39:17.460Z,24.20
2022-08-28T10:41:49.016Z,24.41
2022-08-28T10:44:23.496Z,24.62
2022-08-28T10:46:55.555Z,24.47
2022-08-28T10:49:27.434Z,24.32
2022-08-28T10:51:59.063Z,24.13
2022-08-28T10:54:33.333Z,23.89
2022-08-28T10:57:07.786Z,23.66
2022-08-28T10:59:42.226Z,23.48
2022-08-28T11:02:14.263Z,23.48
2022-08-28T11:04:43.345Z,23.51
2022-08-28T11:07:15.349Z,23.49
2022-08-28T11:09:48.906Z,23.47
2022-08-28T11:12:38.179Z,23.42
2022-08-28T11:15:43.837Z,23.38
2022-08-28T11:18:45.290Z,23.47
2022-08-28T11:21:20.121Z,23.39
2022-08-28T11:23:53.329Z,23.44
2022-08-28T11:26:31.567Z,23.46
2022-08-28T11:29:03.256Z,23.43
2022-08-28T11:31:42.300Z,23.39
2022-08-28T11:34:44.428Z,23.52
2022-08-28T11:37:40.424Z,23.66
2022-08-28T11:40:17.495Z,23.79
2022-08-28T11:42:49.333Z,23.89
2022-08-28T11:45:23.876Z,24.16
2022-08-28T11:47:56.447Z,24.56
2022-08-28T11:50:31.625Z,24.70
2022-08-28T11:53:17.434Z,24.96
2022-08-28T11:56:16.013Z,25.18
2022-08-28T11:59:18.897Z,25.48
2022-08-28T12:01:47.616Z,25.52
2022-08-28T12:04:19.969Z,25.52
2022-08-28T12:06:54.562Z,25.68
2022-08-28T12:09:42.088Z,25.81
2022-08-28T12:12:15.039Z,25.92
2022-08-28T12:15:09.877Z,26.27
2022-08-28T12:17:57.701Z,26.57
2022-08-28T12:20:40.602Z,26.60
2022-08-28T12:23:45.968Z,26.68
2022-08-28T12:26:24.746Z,26.22
2022-08-28T12:28:56.389Z,25.92
2022-08-28T12:32:06.164Z,25.67
2022-08-28T12:34:43.775Z,25.64
2022-08-28T12:37:29.368Z,25.66
2022-08-28T12:40:02.902Z,25.87
2022-08-28T12:42:33.007Z,25.76
2022-08-28T12:45:05.252Z,25.65
2022-08-28T12:47:37.491Z,25.63
2022-08-28T12:50:22.786Z,25.74
2022-08-28T12:52:52.813Z,25.79
2022-08-28T12:55:24.461Z,25.62
2022-08-28T12:57:54.922Z,25.28
2022-08-28T13:00:25.789Z,25.39
2022-08-28T13:02:57.149Z,25.54
2022-08-28T13:05:33.265Z,25.68
2022-08-28T13:08:04.888Z,25.73
2022-08-28T13:10:36.611Z,25.86
2022-08-28T13:13:10.922Z,25.91
2022-08-28T13:15:48.433Z,25.93
2022-08-28T13:18:56.487Z,26.04
2022-08-28T13:21:35.197Z,26.03
2022-08-28T13:24:27.717Z,26.00
2022-08-28T13:27:06.698Z,25.80
2022-08-28T13:29:36.592Z,25.73
2022-08-28T13:32:08.147Z,25.66
2022-08-28T13:34:47.633Z,25.76
2022-08-28T13:37:41.755Z,25.85
2022-08-28T13:40:30.156Z,25.94
2022-08-28T13:43:07.761Z,25.99
2022-08-28T13:45:43.914Z,26.04
2022-08-28T13:48:14.025Z,26.04
2022-08-28T13:50:47.369Z,26.13
2022-08-28T13:53:17.806Z,26.10
2022-08-28T13:55:47.555Z,26.07
2022-08-28T13:58:16.416Z,25.90
2022-08-28T14:00:47.483Z,26.01
2022-08-28T14:03:34.223Z,26.09
2022-08-28T14:06:07.658Z,26.14
2022-08-28T14:08:36.760Z,26.01
2022-08-28T14:11:07.215Z,25.91
2022-08-28T14:13:35.981Z,25.82
2022-08-28T14:16:06.250Z,25.81
2022-08-28T14:18:35.660Z,25.82
2022-08-28T14:21:07.574Z,25.96
2022-08-28T14:23:36.364Z,25.94
2022-08-28T14:26:06.340Z,25.88
2022-08-28T14:28:35.408Z,25.80
2022-08-28T14:31:09.897Z,25.74
2022-08-28T14:33:42.367Z,25.78
2022-08-28T14:36:18.076Z,25.72
2022-08-28T14:38:46.904Z,25.64
2022-08-28T14:41:17.469Z,25.64
2022-08-28T14:43:47.957Z,25.59
2022-08-28T14:46:17.097Z,25.62
2022-08-28T14:48:45.986Z,25.64
2022-08-28T14:51:15.018Z,25.62
2022-08-28T14:53:45.582Z,25.61
2022-08-28T14:56:14.367Z,25.43
2022-08-28T14:58:43.742Z,25.42
2022-08-28T15:01:22.512Z,25.40
2022-08-28T15:03:51.762Z,25.40
2022-08-28T15:06:20.840Z,25.47
2022-08-28T15:08:51.225Z,25.49
2022-08-28T15:11:23.008Z,25.55
2022-08-28T15:13:53.161Z,25.69
2022-08-28T15:16:29.672Z,25.63
2022-08-28T15:19:00.042Z,25.59
2022-08-28T15:21:32.215Z,25.52
2022-08-28T15:24:04.186Z,25.49
2022-08-28T15:26:33.746Z,25.49
2022-08-28T15:29:03.241Z,25.50
2022-08-28T15:31:33.177Z,25.56
2022-08-28T15:34:04.121Z,25.47
2022-08-28T15:36:36.356Z,25.38
2022-08-28T15:39:25.336Z,25.25
2022-08-28T15:41:54.124Z,25.22
2022-08-28T15:44:23.225Z,25.23
2022-08-28T15:46:53.006Z,25.15
2022-08-28T15:49:23.914Z,25.09
2022-08-28T15:51:53.159Z,25.10
2022-08-28T15:54:23.789Z,25.07
2022-08-28T15:56:53.967Z,25.06
2022-08-28T15:59:23.759Z,25.02
2022-08-28T16:02:07.299Z,25.07
2022-08-28T16:04:37.140Z,24.96
2022-08-28T16:07:05.953Z,24.98
2022-08-28T16:09:36.195Z,25.03
2022-08-28T16:12:05.668Z,25.02
2022-08-28T16:14:34.692Z,25.00
2022-08-28T16:17:05.865Z,24.99
2022-08-28T16:19:39.897Z,25.05
2022-08-28T16:22:08.945Z,25.07
2022-08-28T16:24:39.183Z,25.07
2022-08-28T16:27:11.949Z,25.05
2022-08-28T16:29:44.413Z,24.99
2022-08-28T16:32:13.881Z,25.01
2022-08-28T16:34:44.939Z,24.98
2022-08-28T16:37:15.816Z,24.98
2022-08-28T16:39:54.390Z,24.93
2022-08-28T16:42:27.665Z,24.90
2022-08-28T16:45:00.381Z,24.82
2022-08-28T16:47:31.622Z,24.78
2022-08-28T16:50:02.700Z,24.72
2022-08-28T16:52:31.557Z,24.72
2022-08-28T16:55:02.381Z,24.69
2022-08-28T16:57:31.422Z,24.64
2022-08-28T17:00:00.381Z,24.64
2022-08-28T17:02:29.449Z,24.63
2022-08-28T17:05:00.477Z,24.59
2022-08-28T17:07:29.781Z,24.50
2022-08-28T17:09:58.574Z,24.49
2022-08-28T17:12:29.247Z,24.40
2022-08-28T17:14:58.062Z,24.50
2022-08-28T17:17:26.973Z,24.47
2022-08-28T17:19:55.827Z,24.44
2022-08-28T17:22:31.857Z,24.50
2022-08-28T17:25:01.727Z,24.44
2022-08-28T17:27:32.179Z,24.46
2022-08-28T17:30:04.694Z,24.41
2022-08-28T17:32:33.813Z,24.40
2022-08-28T17:35:03.184Z,24.35
2022-08-28T17:37:32.376Z,24.29
2022-08-28T17:40:01.228Z,24.19
2022-08-28T17:42:31.576Z,24.15
2022-08-28T17:45:00.553Z,24.06
2022-08-28T17:47:31.106Z,24.07
2022-08-28T17:50:01.392Z,24.06
2022-08-28T17:52:31.647Z,24.00
2022-08-28T17:55:00.651Z,23.95
2022-08-28T17:57:31.267Z,23.92
2022-08-28T18:00:01.275Z,23.89
2022-08-28T18:02:33.940Z,23.84
2022-08-28T18:05:03.328Z,23.80
2022-08-28T18:07:32.190Z,23.74
2022-08-28T18:10:01.382Z,23.66
2022-08-28T18:12:31.682Z,23.59
2022-08-28T18:15:00.547Z,23.52
2022-08-28T18:17:29.272Z,23.49
2022-08-28T18:19:59.952Z,23.42
2022-08-28T18:22:31.536Z,23.39
2022-08-28T18:25:00.281Z,23.36
2022-08-28T18:27:31.554Z,23.29
2022-08-28T18:30:01.908Z,23.22
2022-08-28T18:32:30.834Z,23.12
2022-08-28T18:34:59.920Z,23.13
2022-08-28T18:37:28.841Z,23.07
2022-08-28T18:39:57.695Z,23.04
2022-08-28T18:42:26.748Z,22.97
2022-08-28T18:44:55.514Z,22.93
2022-08-28T18:47:25.833Z,22.86
2022-08-28T18:49:54.623Z,22.75
2022-08-28T18:52:23.364Z,22.74
2022-08-28T18:54:52.245Z,22.77
2022-08-28T18:57:25.646Z,22.67
2022-08-28T18:59:54.945Z,22.62
2022-08-28T19:02:25.234Z,22.57
2022-08-28T19:04:54.277Z,22.49
2022-08-28T19:07:23.344Z,22.38
2022-08-28T19:09:52.154Z,22.28
2022-08-28T19:12:20.972Z,22.23
2022-08-28T19:14:50.180Z,22.15
2022-08-28T19:17:21.090Z,22.05
2022-08-28T19:19:51.830Z,22.00
2022-08-28T19:22:21.019Z,21.97
2022-08-28T19:24:50.330Z,21.89
2022-08-28T19:27:19.606Z,21.88
2022-08-28T19:29:48.547Z,21.88
2022-08-28T19:32:18.143Z,21.85
2022-08-28T19:34:46.899Z,21.77
2022-08-28T19:37:17.369Z,21.76
2022-08-28T19:39:51.026Z,21.68
2022-08-28T19:42:25.465Z,21.63
2022-08-28T19:45:00.033Z,21.53
2022-08-28T19:47:29.075Z,21.44
2022-08-28T19:50:07.065Z,21.46
2022-08-28T19:52:37.831Z,21.37
2022-08-28T19:55:08.183Z,21.32
2022-08-28T19:57:37.117Z,21.32
2022-08-28T20:00:07.231Z,21.26
2022-08-28T20:02:37.019Z,21.19
2022-08-28T20:05:06.877Z,21.20
2022-08-28T20:07:37.056Z,21.17
2022-08-28T20:10:07.424Z,21.13
2022-08-28T20:12:38.497Z,21.03
2022-08-28T20:15:08.732Z,20.96
2022-08-28T20:17:43.825Z,20.99
2022-08-28T20:20:13.443Z,20.95
2022-08-28T20:22:43.954Z,20.91
2022-08-28T20:25:12.824Z,20.88
2022-08-28T20:27:43.643Z,20.81
2022-08-28T20:30:13.936Z,20.72
2022-08-28T20:32:42.803Z,20.66
2022-08-28T20:35:13.566Z,20.64
2022-08-28T20:37:45.832Z,20.60
2022-08-28T20:40:17.141Z,20.59
2022-08-28T20:42:47.279Z,20.56
2022-08-28T20:45:17.851Z,20.55
2022-08-28T20:47:47.083Z,20.46
2022-08-28T20:50:16.072Z,20.41
2022-08-28T20:52:46.330Z,20.41
2022-08-28T20:55:15.146Z,20.37
2022-08-28T20:57:44.094Z,20.30
2022-08-28T21:00:14.100Z,20.33
2022-08-28T21:02:42.862Z,20.21
2022-08-28T21:05:12.099Z,20.24
2022-08-28T21:07:40.917Z,20.15
2022-08-28T21:10:11.455Z,20.13
2022-08-28T21:12:41.061Z,20.08
2022-08-28T21:15:12.772Z,20.06
2022-08-28T21:17:42.712Z,19.97
2022-08-28T21:20:14.255Z,19.99
2022-08-28T21:22:43.201Z,20.08
2022-08-28T21:25:14.086Z,20.02
2022-08-28T21:27:43.077Z,19.96
2022-08-28T21:30:14.478Z,19.89
2022-08-28T21:32:43.371Z,19.86
2022-08-28T21:35:13.686Z,19.84
2022-08-28T21:37:43.190Z,19.81
2022-08-28T21:40:14.984Z,19.77
2022-08-28T21:42:44.335Z,19.76
2022-08-28T21:45:13.393Z,19.65
2022-08-28T21:47:43.228Z,19.57
2022-08-28T21:50:13.238Z,19.58
2022-08-28T21:52:42.354Z,19.51
2022-08-28T21:55:14.730Z,19.49
2022-08-28T21:57:44.577Z,19.53
2022-08-28T22:00:17.582Z,19.46
2022-08-28T22:02:46.590Z,19.46
2022-08-28T22:05:16.059Z,19.46
2022-08-28T22:07:45.258Z,19.38
2022-08-28T22:10:15.929Z,19.34
2022-08-28T22:12:44.971Z,19.34
2022-08-28T22:15:13.816Z,19.27
2022-08-28T22:17:43.385Z,19.21
2022-08-28T22:20:12.579Z,19.27
2022-08-28T22:22:58.867Z,19.26
2022-08-28T22:25:29.229Z,19.24
2022-08-28T22:27:58.120Z,19.16
2022-08-28T22:30:26.976Z,19.05
2022-08-28T22:32:55.726Z,19.05
2022-08-28T22:35:24.831Z,19.08
2022-08-28T22:37:53.607Z,19.04
2022-08-28T22:40:22.703Z,18.99
2022-08-28T22:42:52.884Z,18.93
2022-08-28T22:45:22.321Z,18.93
2022-08-28T22:47:51.156Z,18.85
2022-08-28T22:50:20.084Z,18.88
2022-08-28T22:52:49.703Z,18.86
2022-08-28T22:55:20.270Z,18.82
2022-08-28T22:57:49.149Z,18.75
2022-08-28T23:00:23.847Z,18.75
2022-08-28T23:02:53.619Z,18.70
2022-08-28T23:05:23.286Z,18.67
2022-08-28T23:07:52.468Z,18.68
2022-08-28T23:10:36.718Z,18.64
2022-08-28T23:13:14.387Z,18.61
2022-08-28T23:15:45.093Z,18.62
2022-08-28T23:18:13.965Z,18.57
2022-08-28T23:20:43.904Z,18.53
2022-08-28T23:23:12.931Z,18.50
2022-08-28T23:25:41.984Z,18.52
2022-08-28T23:28:10.855Z,18.48
2022-08-28T23:30:43.993Z,18.43
2022-08-28T23:33:23.531Z,18.46
2022-08-28T23:35:52.954Z,18.41
2022-08-28T23:38:21.777Z,18.41
2022-08-28T23:40:50.790Z,18.29
2022-08-28T23:43:19.619Z,18.28
2022-08-28T23:45:49.141Z,18.26
2022-08-28T23:48:19.433Z,18.26
2022-08-28T23:50:48.265Z,18.24
2022-08-28T23:53:17.328Z,18.20
2022-08-28T23:55:46.471Z,18.19
2022-08-28T23:58:18.256Z,18.15
